sensor_id;sensor_type;location;lat;lon;timestamp;temperature;humidity
26081;DHT22;13991;51.174;4.438;2023-02-28T00:00:50;3.80;99.90
26081;DHT22;13991;51.174;4.438;2023-02-28T00:03:16;3.80;99.90
26081;DHT22;13991;51.174;4.438;2023-02-28T00:05:42;3.80;99.90
26081;DHT22;13991;51.174;4.438;2023-02-28T00:08:08;3.80;99.90
26081;DHT22;13991;51.174;4.438;2023-02-28T00:10:34;3.70;99.90
26081;DHT22;13991;51.174;4.438;2023-02-28T00:13:05;3.80;99.90
26081;DHT22;13991;51.174;4.438;2023-02-28T00:15:31;3.70;99.90
26081;DHT22;13991;51.174;4.438;2023-02-28T00:17:57;3.60;99.90
26081;DHT22;13991;51.174;4.438;2023-02-28T00:20:23;3.60;99.90
26081;DHT22;13991;51.174;4.438;2023-02-28T00:22:51;3.50;99.90
26081;DHT22;13991;51.174;4.438;2023-02-28T00:25:20;3.50;99.90
26081;DHT22;13991;51.174;4.438;2023-02-28T00:27:47;3.40;99.90
26081;DHT22;13991;51.174;4.438;2023-02-28T00:30:19;3.50;99.90
26081;DHT22;13991;51.174;4.438;2023-02-28T00:32:45;3.60;99.90
26081;DHT22;13991;51.174;4.438;2023-02-28T00:35:11;3.60;99.90
26081;DHT22;13991;51.174;4.438;2023-02-28T00:37:38;3.60;99.90
26081;DHT22;13991;51.174;4.438;2023-02-28T00:40:04;3.60;99.90
26081;DHT22;13991;51.174;4.438;2023-02-28T00:42:31;3.60;99.90
26081;DHT22;13991;51.174;4.438;2023-02-28T00:44:57;3.60;99.90
26081;DHT22;13991;51.174;4.438;2023-02-28T00:47:23;3.60;99.90
26081;DHT22;13991;51.174;4.438;2023-02-28T00:49:48;3.60;99.90
26081;DHT22;13991;51.174;4.438;2023-02-28T00:52:14;3.60;99.90
26081;DHT22;13991;51.174;4.438;2023-02-28T00:54:40;3.70;99.90
26081;DHT22;13991;51.174;4.438;2023-02-28T00:57:05;3.60;99.90
26081;DHT22;13991;51.174;4.438;2023-02-28T00:59:31;3.50;99.90
26081;DHT22;13991;51.174;4.438;2023-02-28T01:01:57;3.60;99.90
26081;DHT22;13991;51.174;4.438;2023-02-28T01:04:22;3.50;99.90
26081;DHT22;13991;51.174;4.438;2023-02-28T01:06:48;3.50;99.90
26081;DHT22;13991;51.174;4.438;2023-02-28T01:09:14;3.40;99.90
26081;DHT22;13991;51.174;4.438;2023-02-28T01:11:39;3.40;99.90
26081;DHT22;13991;51.174;4.438;2023-02-28T01:14:07;3.30;99.90
26081;DHT22;13991;51.174;4.438;2023-02-28T01:16:33;3.10;99.90
26081;DHT22;13991;51.174;4.438;2023-02-28T01:18:59;3.10;99.90
26081;DHT22;13991;51.174;4.438;2023-02-28T01:21:25;3.20;99.90
26081;DHT22;13991;51.174;4.438;2023-02-28T01:23:50;3.20;99.90
26081;DHT22;13991;51.174;4.438;2023-02-28T01:26:18;3.10;99.90
26081;DHT22;13991;51.174;4.438;2023-02-28T01:28:44;3.20;99.90
26081;DHT22;13991;51.174;4.438;2023-02-28T01:31:10;3.30;99.90
26081;DHT22;13991;51.174;4.438;2023-02-28T01:33:37;3.20;99.90
26081;DHT22;13991;51.174;4.438;2023-02-28T01:36:06;3.20;99.90
26081;DHT22;13991;51.174;4.438;2023-02-28T01:38:33;3.20;99.90
26081;DHT22;13991;51.174;4.438;2023-02-28T01:40:59;3.00;99.90
26081;DHT22;13991;51.174;4.438;2023-02-28T01:46:17;3.00;99.90
26081;DHT22;13991;51.174;4.438;2023-02-28T01:48:51;3.00;99.90
26081;DHT22;13991;51.174;4.438;2023-02-28T01:51:30;3.00;99.90
26081;DHT22;13991;51.174;4.438;2023-02-28T01:54:02;2.90;99.90
26081;DHT22;13991;51.174;4.438;2023-02-28T01:56:32;2.90;99.90
26081;DHT22;13991;51.174;4.438;2023-02-28T01:58:59;2.90;99.90
26081;DHT22;13991;51.174;4.438;2023-02-28T02:01:26;2.90;99.90
26081;DHT22;13991;51.174;4.438;2023-02-28T02:03:58;2.90;99.90
26081;DHT22;13991;51.174;4.438;2023-02-28T02:06:31;2.90;99.90
26081;DHT22;13991;51.174;4.438;2023-02-28T02:08:59;2.90;99.90
26081;DHT22;13991;51.174;4.438;2023-02-28T02:11:25;2.80;99.90
26081;DHT22;13991;51.174;4.438;2023-02-28T02:14:07;2.90;99.90
26081;DHT22;13991;51.174;4.438;2023-02-28T02:22:12;3.00;99.90
26081;DHT22;13991;51.174;4.438;2023-02-28T02:24:53;3.10;99.90
26081;DHT22;13991;51.174;4.438;2023-02-28T02:38:51;2.90;99.90
26081;DHT22;13991;51.174;4.438;2023-02-28T02:41:27;2.90;99.90
26081;DHT22;13991;51.174;4.438;2023-02-28T02:44:01;3.00;99.90
26081;DHT22;13991;51.174;4.438;2023-02-28T02:46:40;2.80;99.90
26081;DHT22;13991;51.174;4.438;2023-02-28T02:49:11;2.80;99.90
26081;DHT22;13991;51.174;4.438;2023-02-28T02:51:39;2.80;99.90
26081;DHT22;13991;51.174;4.438;2023-02-28T02:54:12;2.90;99.90
26081;DHT22;13991;51.174;4.438;2023-02-28T02:56:43;2.70;99.90
26081;DHT22;13991;51.174;4.438;2023-02-28T02:59:13;2.70;99.90
26081;DHT22;13991;51.174;4.438;2023-02-28T03:01:41;2.60;99.90
26081;DHT22;13991;51.174;4.438;2023-02-28T03:04:13;2.70;99.90
26081;DHT22;13991;51.174;4.438;2023-02-28T03:06:41;2.60;99.90
26081;DHT22;13991;51.174;4.438;2023-02-28T03:09:07;2.60;99.90
26081;DHT22;13991;51.174;4.438;2023-02-28T03:11:35;2.70;99.90
26081;DHT22;13991;51.174;4.438;2023-02-28T03:16:53;2.60;99.90
26081;DHT22;13991;51.174;4.438;2023-02-28T03:27:26;2.80;99.90
26081;DHT22;13991;51.174;4.438;2023-02-28T03:30:04;2.70;99.90
26081;DHT22;13991;51.174;4.438;2023-02-28T03:32:57;2.70;99.90
26081;DHT22;13991;51.174;4.438;2023-02-28T03:35:28;2.70;99.90
26081;DHT22;13991;51.174;4.438;2023-02-28T03:38:07;2.80;99.90
26081;DHT22;13991;51.174;4.438;2023-02-28T03:40:37;2.80;99.90
26081;DHT22;13991;51.174;4.438;2023-02-28T03:43:10;2.80;99.90
26081;DHT22;13991;51.174;4.438;2023-02-28T03:45:38;2.70;99.90
26081;DHT22;13991;51.174;4.438;2023-02-28T03:48:14;2.80;99.90
26081;DHT22;13991;51.174;4.438;2023-02-28T03:50:45;2.80;99.90
26081;DHT22;13991;51.174;4.438;2023-02-28T03:53:32;2.80;99.90
26081;DHT22;13991;51.174;4.438;2023-02-28T03:56:07;2.60;99.90
26081;DHT22;13991;51.174;4.438;2023-02-28T04:01:20;2.70;99.90
26081;DHT22;13991;51.174;4.438;2023-02-28T04:03:47;2.80;99.90
26081;DHT22;13991;51.174;4.438;2023-02-28T04:06:21;2.90;99.90
26081;DHT22;13991;51.174;4.438;2023-02-28T04:08:47;3.00;99.90
26081;DHT22;13991;51.174;4.438;2023-02-28T04:14:04;3.00;99.90
26081;DHT22;13991;51.174;4.438;2023-02-28T04:16:31;3.00;99.90
26081;DHT22;13991;51.174;4.438;2023-02-28T04:18:57;3.00;99.90
26081;DHT22;13991;51.174;4.438;2023-02-28T04:21:39;3.00;99.90
26081;DHT22;13991;51.174;4.438;2023-02-28T04:24:07;3.20;99.90
26081;DHT22;13991;51.174;4.438;2023-02-28T04:26:35;3.10;99.90
26081;DHT22;13991;51.174;4.438;2023-02-28T04:29:03;3.10;99.90
26081;DHT22;13991;51.174;4.438;2023-02-28T04:31:29;3.30;99.90
26081;DHT22;13991;51.174;4.438;2023-02-28T04:33:55;3.30;99.90
26081;DHT22;13991;51.174;4.438;2023-02-28T04:36:21;3.30;99.90
26081;DHT22;13991;51.174;4.438;2023-02-28T04:38:49;3.30;99.90
26081;DHT22;13991;51.174;4.438;2023-02-28T04:41:15;3.20;99.90
26081;DHT22;13991;51.174;4.438;2023-02-28T04:43:40;3.30;99.90
26081;DHT22;13991;51.174;4.438;2023-02-28T04:46:06;3.20;99.90
26081;DHT22;13991;51.174;4.438;2023-02-28T04:48:35;3.20;99.90
26081;DHT22;13991;51.174;4.438;2023-02-28T04:51:10;3.20;99.90
26081;DHT22;13991;51.174;4.438;2023-02-28T04:53:37;3.30;99.90
26081;DHT22;13991;51.174;4.438;2023-02-28T04:56:03;3.30;99.90
26081;DHT22;13991;51.174;4.438;2023-02-28T04:58:29;3.20;99.90
26081;DHT22;13991;51.174;4.438;2023-02-28T05:01:06;3.30;99.90
26081;DHT22;13991;51.174;4.438;2023-02-28T05:03:41;3.30;99.90
26081;DHT22;13991;51.174;4.438;2023-02-28T05:06:08;3.30;99.90
26081;DHT22;13991;51.174;4.438;2023-02-28T05:08:33;3.20;99.90
26081;DHT22;13991;51.174;4.438;2023-02-28T05:10:59;3.20;99.90
26081;DHT22;13991;51.174;4.438;2023-02-28T05:13:27;3.20;99.90
26081;DHT22;13991;51.174;4.438;2023-02-28T05:15:53;3.20;99.90
26081;DHT22;13991;51.174;4.438;2023-02-28T05:18:19;3.20;99.90
26081;DHT22;13991;51.174;4.438;2023-02-28T05:20:45;3.30;99.90
26081;DHT22;13991;51.174;4.438;2023-02-28T05:23:22;3.40;99.90
26081;DHT22;13991;51.174;4.438;2023-02-28T05:25:48;3.50;99.90
26081;DHT22;13991;51.174;4.438;2023-02-28T05:28:14;3.70;99.90
26081;DHT22;13991;51.174;4.438;2023-02-28T05:30:39;3.60;99.90
26081;DHT22;13991;51.174;4.438;2023-02-28T05:33:05;3.40;99.90
26081;DHT22;13991;51.174;4.438;2023-02-28T05:35:31;3.50;99.90
26081;DHT22;13991;51.174;4.438;2023-02-28T05:37:57;3.40;99.90
26081;DHT22;13991;51.174;4.438;2023-02-28T05:40:23;3.40;99.90
26081;DHT22;13991;51.174;4.438;2023-02-28T05:42:50;3.50;99.90
26081;DHT22;13991;51.174;4.438;2023-02-28T05:45:16;3.50;99.90
26081;DHT22;13991;51.174;4.438;2023-02-28T05:47:42;3.50;99.90
26081;DHT22;13991;51.174;4.438;2023-02-28T05:50:08;3.50;99.90
26081;DHT22;13991;51.174;4.438;2023-02-28T05:52:36;3.60;99.90
26081;DHT22;13991;51.174;4.438;2023-02-28T05:55:02;3.70;99.90
26081;DHT22;13991;51.174;4.438;2023-02-28T05:57:28;3.70;99.90
26081;DHT22;13991;51.174;4.438;2023-02-28T05:59:53;3.70;99.90
26081;DHT22;13991;51.174;4.438;2023-02-28T06:02:19;3.70;99.90
26081;DHT22;13991;51.174;4.438;2023-02-28T06:04:45;3.70;99.90
26081;DHT22;13991;51.174;4.438;2023-02-28T06:07:11;3.70;99.90
26081;DHT22;13991;51.174;4.438;2023-02-28T06:09:38;3.70;99.90
26081;DHT22;13991;51.174;4.438;2023-02-28T06:12:05;3.60;99.90
26081;DHT22;13991;51.174;4.438;2023-02-28T06:14:33;3.60;99.90
26081;DHT22;13991;51.174;4.438;2023-02-28T06:17:00;3.70;99.90
26081;DHT22;13991;51.174;4.438;2023-02-28T06:19:26;3.70;99.90
26081;DHT22;13991;51.174;4.438;2023-02-28T06:21:53;3.80;99.90
26081;DHT22;13991;51.174;4.438;2023-02-28T06:24:23;3.80;99.90
26081;DHT22;13991;51.174;4.438;2023-02-28T06:26:49;3.80;99.90
26081;DHT22;13991;51.174;4.438;2023-02-28T06:29:15;3.80;99.90
26081;DHT22;13991;51.174;4.438;2023-02-28T06:31:47;3.70;99.90
26081;DHT22;13991;51.174;4.438;2023-02-28T06:34:13;3.60;99.90
26081;DHT22;13991;51.174;4.438;2023-02-28T06:36:40;3.70;99.90
26081;DHT22;13991;51.174;4.438;2023-02-28T06:39:07;3.80;99.90
26081;DHT22;13991;51.174;4.438;2023-02-28T06:41:33;3.80;99.90
26081;DHT22;13991;51.174;4.438;2023-02-28T06:44:13;3.80;99.90
26081;DHT22;13991;51.174;4.438;2023-02-28T06:46:43;3.80;99.90
26081;DHT22;13991;51.174;4.438;2023-02-28T06:49:10;3.80;99.90
26081;DHT22;13991;51.174;4.438;2023-02-28T06:51:39;3.70;99.90
26081;DHT22;13991;51.174;4.438;2023-02-28T06:54:05;3.80;99.90
26081;DHT22;13991;51.174;4.438;2023-02-28T06:56:34;3.90;99.90
26081;DHT22;13991;51.174;4.438;2023-02-28T06:59:00;3.80;99.90
26081;DHT22;13991;51.174;4.438;2023-02-28T07:01:26;3.80;99.90
26081;DHT22;13991;51.174;4.438;2023-02-28T07:03:53;3.90;99.90
26081;DHT22;13991;51.174;4.438;2023-02-28T07:06:20;3.90;99.90
26081;DHT22;13991;51.174;4.438;2023-02-28T07:08:48;3.90;99.90
26081;DHT22;13991;51.174;4.438;2023-02-28T07:11:14;4.00;99.90
26081;DHT22;13991;51.174;4.438;2023-02-28T07:13:40;4.00;99.90
26081;DHT22;13991;51.174;4.438;2023-02-28T07:16:09;4.00;99.90
26081;DHT22;13991;51.174;4.438;2023-02-28T07:18:35;4.20;99.90
26081;DHT22;13991;51.174;4.438;2023-02-28T07:21:06;4.20;99.90
26081;DHT22;13991;51.174;4.438;2023-02-28T07:23:33;4.20;99.90
26081;DHT22;13991;51.174;4.438;2023-02-28T07:25:58;4.20;99.90
26081;DHT22;13991;51.174;4.438;2023-02-28T07:28:24;4.10;99.90
26081;DHT22;13991;51.174;4.438;2023-02-28T07:30:50;4.10;99.90
26081;DHT22;13991;51.174;4.438;2023-02-28T07:33:16;4.20;99.90
26081;DHT22;13991;51.174;4.438;2023-02-28T07:35:43;4.30;99.90
26081;DHT22;13991;51.174;4.438;2023-02-28T07:38:11;4.40;99.90
26081;DHT22;13991;51.174;4.438;2023-02-28T07:40:39;4.50;99.90
26081;DHT22;13991;51.174;4.438;2023-02-28T07:43:05;4.60;99.90
26081;DHT22;13991;51.174;4.438;2023-02-28T07:45:31;4.40;99.90
26081;DHT22;13991;51.174;4.438;2023-02-28T07:48:00;4.50;99.90
26081;DHT22;13991;51.174;4.438;2023-02-28T07:50:26;4.50;99.90
26081;DHT22;13991;51.174;4.438;2023-02-28T07:52:57;4.60;99.90
26081;DHT22;13991;51.174;4.438;2023-02-28T07:55:22;4.70;99.90
26081;DHT22;13991;51.174;4.438;2023-02-28T07:57:48;4.70;99.90
26081;DHT22;13991;51.174;4.438;2023-02-28T08:00:14;4.70;99.90
26081;DHT22;13991;51.174;4.438;2023-02-28T08:02:40;4.70;99.90
26081;DHT22;13991;51.174;4.438;2023-02-28T08:05:06;4.60;99.90
26081;DHT22;13991;51.174;4.438;2023-02-28T08:07:32;4.70;99.90
26081;DHT22;13991;51.174;4.438;2023-02-28T08:09:58;4.70;99.90
26081;DHT22;13991;51.174;4.438;2023-02-28T08:12:26;4.90;99.90
26081;DHT22;13991;51.174;4.438;2023-02-28T08:14:51;5.00;99.90
26081;DHT22;13991;51.174;4.438;2023-02-28T08:17:17;5.00;99.90
26081;DHT22;13991;51.174;4.438;2023-02-28T08:19:46;5.10;99.90
26081;DHT22;13991;51.174;4.438;2023-02-28T08:22:13;5.20;99.90
26081;DHT22;13991;51.174;4.438;2023-02-28T08:24:41;5.10;99.90
26081;DHT22;13991;51.174;4.438;2023-02-28T08:27:08;5.20;99.90
26081;DHT22;13991;51.174;4.438;2023-02-28T08:29:33;5.20;99.90
26081;DHT22;13991;51.174;4.438;2023-02-28T08:31:59;5.30;99.90
26081;DHT22;13991;51.174;4.438;2023-02-28T08:34:26;5.30;99.90
26081;DHT22;13991;51.174;4.438;2023-02-28T08:36:52;5.30;99.90
26081;DHT22;13991;51.174;4.438;2023-02-28T08:39:18;5.30;99.90
26081;DHT22;13991;51.174;4.438;2023-02-28T08:41:45;5.40;99.90
26081;DHT22;13991;51.174;4.438;2023-02-28T08:44:11;5.40;99.90
26081;DHT22;13991;51.174;4.438;2023-02-28T08:46:36;5.50;99.90
26081;DHT22;13991;51.174;4.438;2023-02-28T08:49:03;5.40;99.90
26081;DHT22;13991;51.174;4.438;2023-02-28T08:51:30;5.40;99.90
26081;DHT22;13991;51.174;4.438;2023-02-28T08:53:58;5.60;99.90
26081;DHT22;13991;51.174;4.438;2023-02-28T08:56:26;5.70;99.90
26081;DHT22;13991;51.174;4.438;2023-02-28T08:58:51;5.50;99.90
26081;DHT22;13991;51.174;4.438;2023-02-28T09:01:27;5.50;99.90
26081;DHT22;13991;51.174;4.438;2023-02-28T09:03:53;5.50;99.90
26081;DHT22;13991;51.174;4.438;2023-02-28T09:06:22;5.50;99.90
26081;DHT22;13991;51.174;4.438;2023-02-28T09:08:48;5.70;99.90
26081;DHT22;13991;51.174;4.438;2023-02-28T09:11:14;5.80;99.90
26081;DHT22;13991;51.174;4.438;2023-02-28T09:13:40;6.00;99.90
26081;DHT22;13991;51.174;4.438;2023-02-28T09:16:09;6.00;99.90
26081;DHT22;13991;51.174;4.438;2023-02-28T09:18:36;5.90;99.90
26081;DHT22;13991;51.174;4.438;2023-02-28T09:21:11;5.70;99.90
26081;DHT22;13991;51.174;4.438;2023-02-28T09:23:40;5.60;99.90
26081;DHT22;13991;51.174;4.438;2023-02-28T09:26:07;5.60;99.90
26081;DHT22;13991;51.174;4.438;2023-02-28T09:28:32;5.60;99.90
26081;DHT22;13991;51.174;4.438;2023-02-28T09:30:58;5.60;99.90
26081;DHT22;13991;51.174;4.438;2023-02-28T09:33:25;5.80;99.90
26081;DHT22;13991;51.174;4.438;2023-02-28T09:35:57;6.00;99.90
26081;DHT22;13991;51.174;4.438;2023-02-28T09:38:23;6.10;99.90
26081;DHT22;13991;51.174;4.438;2023-02-28T09:40:51;6.20;99.90
26081;DHT22;13991;51.174;4.438;2023-02-28T09:43:19;6.20;99.90
26081;DHT22;13991;51.174;4.438;2023-02-28T09:46:16;6.30;99.90
26081;DHT22;13991;51.174;4.438;2023-02-28T09:48:48;6.40;99.90
26081;DHT22;13991;51.174;4.438;2023-02-28T09:51:35;6.40;97.90
26081;DHT22;13991;51.174;4.438;2023-02-28T09:54:03;6.30;96.20
26081;DHT22;13991;51.174;4.438;2023-02-28T09:56:40;6.40;95.30
26081;DHT22;13991;51.174;4.438;2023-02-28T10:11:16;6.50;92.30
26081;DHT22;13991;51.174;4.438;2023-02-28T10:17:11;6.60;92.30
26081;DHT22;13991;51.174;4.438;2023-02-28T10:22:58;6.80;91.00
26081;DHT22;13991;51.174;4.438;2023-02-28T10:25:28;6.70;91.00
26081;DHT22;13991;51.174;4.438;2023-02-28T10:28:00;6.70;90.70
26081;DHT22;13991;51.174;4.438;2023-02-28T10:30:27;6.70;90.70
26081;DHT22;13991;51.174;4.438;2023-02-28T10:32:53;6.80;90.10
26081;DHT22;13991;51.174;4.438;2023-02-28T10:35:22;6.80;89.40
26081;DHT22;13991;51.174;4.438;2023-02-28T10:37:54;6.80;89.80
26081;DHT22;13991;51.174;4.438;2023-02-28T10:43:04;6.70;88.50
26081;DHT22;13991;51.174;4.438;2023-02-28T10:46:01;6.80;86.10
26081;DHT22;13991;51.174;4.438;2023-02-28T10:55:25;6.90;85.20
26081;DHT22;13991;51.174;4.438;2023-02-28T10:57:52;7.00;85.10
26081;DHT22;13991;51.174;4.438;2023-02-28T11:03:41;7.00;84.20
26081;DHT22;13991;51.174;4.438;2023-02-28T11:06:13;7.20;83.60
26081;DHT22;13991;51.174;4.438;2023-02-28T11:11:45;7.20;79.20
26081;DHT22;13991;51.174;4.438;2023-02-28T11:15:19;7.20;80.30
26081;DHT22;13991;51.174;4.438;2023-02-28T11:17:22;7.30;80.80
26081;DHT22;13991;51.174;4.438;2023-02-28T11:19:53;7.30;78.00
26081;DHT22;13991;51.174;4.438;2023-02-28T11:22:26;7.30;76.80
26081;DHT22;13991;51.174;4.438;2023-02-28T11:25:02;7.30;75.80
26081;DHT22;13991;51.174;4.438;2023-02-28T11:29:57;7.20;76.80
26081;DHT22;13991;51.174;4.438;2023-02-28T11:35:33;7.20;74.00
26081;DHT22;13991;51.174;4.438;2023-02-28T11:38:35;7.30;74.70
26081;DHT22;13991;51.174;4.438;2023-02-28T11:54:11;7.50;73.40
26081;DHT22;13991;51.174;4.438;2023-02-28T12:07:37;7.80;72.30
26081;DHT22;13991;51.174;4.438;2023-02-28T12:19:38;7.50;73.10
26081;DHT22;13991;51.174;4.438;2023-02-28T12:33:03;8.10;71.00
26081;DHT22;13991;51.174;4.438;2023-02-28T12:42:30;8.10;70.00
26081;DHT22;13991;51.174;4.438;2023-02-28T12:48:42;8.10;68.50
26081;DHT22;13991;51.174;4.438;2023-02-28T12:54:52;7.90;68.90
26081;DHT22;13991;51.174;4.438;2023-02-28T13:01:57;8.10;68.10
26081;DHT22;13991;51.174;4.438;2023-02-28T13:14:02;8.10;68.00
26081;DHT22;13991;51.174;4.438;2023-02-28T13:16:57;8.10;67.90
26081;DHT22;13991;51.174;4.438;2023-02-28T13:19:30;8.30;68.10
26081;DHT22;13991;51.174;4.438;2023-02-28T13:21:57;8.30;66.40
26081;DHT22;13991;51.174;4.438;2023-02-28T13:29:52;8.30;67.60
26081;DHT22;13991;51.174;4.438;2023-02-28T13:32:36;8.20;68.20
26081;DHT22;13991;51.174;4.438;2023-02-28T13:37:32;7.70;70.00
26081;DHT22;13991;51.174;4.438;2023-02-28T13:42:47;8.10;69.00
26081;DHT22;13991;51.174;4.438;2023-02-28T13:48:32;8.30;68.20
26081;DHT22;13991;51.174;4.438;2023-02-28T13:50:58;8.10;69.30
26081;DHT22;13991;51.174;4.438;2023-02-28T13:56:41;8.00;70.00
26081;DHT22;13991;51.174;4.438;2023-02-28T14:05:20;8.30;69.60
26081;DHT22;13991;51.174;4.438;2023-02-28T14:07:53;8.20;68.60
26081;DHT22;13991;51.174;4.438;2023-02-28T14:10:29;8.30;70.40
26081;DHT22;13991;51.174;4.438;2023-02-28T14:16:02;8.50;70.90
26081;DHT22;13991;51.174;4.438;2023-02-28T14:18:31;8.50;68.50
26081;DHT22;13991;51.174;4.438;2023-02-28T14:38:35;7.80;72.70
26081;DHT22;13991;51.174;4.438;2023-02-28T14:41:06;8.00;72.30
26081;DHT22;13991;51.174;4.438;2023-02-28T14:43:49;8.20;70.50
26081;DHT22;13991;51.174;4.438;2023-02-28T14:46:17;8.30;70.90
26081;DHT22;13991;51.174;4.438;2023-02-28T14:48:46;8.30;71.60
26081;DHT22;13991;51.174;4.438;2023-02-28T14:51:18;8.30;70.90
26081;DHT22;13991;51.174;4.438;2023-02-28T14:53:49;8.30;70.50
26081;DHT22;13991;51.174;4.438;2023-02-28T14:56:25;8.20;71.40
26081;DHT22;13991;51.174;4.438;2023-02-28T14:58:58;8.30;70.50
26081;DHT22;13991;51.174;4.438;2023-02-28T15:01:25;8.30;71.40
26081;DHT22;13991;51.174;4.438;2023-02-28T15:04:06;8.40;71.40
26081;DHT22;13991;51.174;4.438;2023-02-28T15:06:33;8.30;71.90
26081;DHT22;13991;51.174;4.438;2023-02-28T15:09:16;8.30;72.00
26081;DHT22;13991;51.174;4.438;2023-02-28T15:14:31;8.30;71.90
26081;DHT22;13991;51.174;4.438;2023-02-28T15:17:11;8.20;72.70
26081;DHT22;13991;51.174;4.438;2023-02-28T15:19:41;8.20;71.40
26081;DHT22;13991;51.174;4.438;2023-02-28T15:22:12;8.20;72.40
26081;DHT22;13991;51.174;4.438;2023-02-28T15:24:46;8.20;71.30
26081;DHT22;13991;51.174;4.438;2023-02-28T15:27:22;8.20;71.50
26081;DHT22;13991;51.174;4.438;2023-02-28T15:29:51;8.00;72.60
26081;DHT22;13991;51.174;4.438;2023-02-28T15:32:29;8.10;72.70
26081;DHT22;13991;51.174;4.438;2023-02-28T15:34:56;8.00;72.90
26081;DHT22;13991;51.174;4.438;2023-02-28T15:37:30;8.10;72.80
26081;DHT22;13991;51.174;4.438;2023-02-28T15:39:57;8.20;72.50
26081;DHT22;13991;51.174;4.438;2023-02-28T15:42:30;8.20;72.70
26081;DHT22;13991;51.174;4.438;2023-02-28T15:44:57;8.20;72.50
26081;DHT22;13991;51.174;4.438;2023-02-28T15:47:25;8.10;71.90
26081;DHT22;13991;51.174;4.438;2023-02-28T15:49:55;7.90;72.90
26081;DHT22;13991;51.174;4.438;2023-02-28T15:52:33;7.90;73.50
26081;DHT22;13991;51.174;4.438;2023-02-28T15:55:26;7.90;74.10
26081;DHT22;13991;51.174;4.438;2023-02-28T15:57:55;7.90;73.60
26081;DHT22;13991;51.174;4.438;2023-02-28T16:00:25;7.80;74.60
26081;DHT22;13991;51.174;4.438;2023-02-28T16:02:51;7.80;74.00
26081;DHT22;13991;51.174;4.438;2023-02-28T16:05:31;7.70;73.70
26081;DHT22;13991;51.174;4.438;2023-02-28T16:08:11;7.70;73.70
26081;DHT22;13991;51.174;4.438;2023-02-28T16:10:38;7.70;75.30
26081;DHT22;13991;51.174;4.438;2023-02-28T16:13:04;7.40;76.50
26081;DHT22;13991;51.174;4.438;2023-02-28T16:15:35;7.30;77.10
26081;DHT22;13991;51.174;4.438;2023-02-28T16:18:10;7.40;77.40
26081;DHT22;13991;51.174;4.438;2023-02-28T16:20:36;7.40;77.40
26081;DHT22;13991;51.174;4.438;2023-02-28T16:23:01;7.30;77.40
26081;DHT22;13991;51.174;4.438;2023-02-28T16:25:37;7.10;78.40
26081;DHT22;13991;51.174;4.438;2023-02-28T16:28:03;7.20;77.30
26081;DHT22;13991;51.174;4.438;2023-02-28T16:30:29;7.20;76.80
26081;DHT22;13991;51.174;4.438;2023-02-28T16:32:58;7.20;77.30
26081;DHT22;13991;51.174;4.438;2023-02-28T16:35:24;7.20;78.00
26081;DHT22;13991;51.174;4.438;2023-02-28T16:37:53;7.20;77.70
26081;DHT22;13991;51.174;4.438;2023-02-28T16:40:24;7.00;78.80
26081;DHT22;13991;51.174;4.438;2023-02-28T16:42:53;6.90;78.90
26081;DHT22;13991;51.174;4.438;2023-02-28T16:45:26;6.80;79.40
26081;DHT22;13991;51.174;4.438;2023-02-28T16:47:52;6.90;79.80
26081;DHT22;13991;51.174;4.438;2023-02-28T16:50:27;6.80;80.50
26081;DHT22;13991;51.174;4.438;2023-02-28T16:52:53;6.70;80.70
26081;DHT22;13991;51.174;4.438;2023-02-28T16:55:20;6.80;80.50
26081;DHT22;13991;51.174;4.438;2023-02-28T16:57:59;6.70;80.80
26081;DHT22;13991;51.174;4.438;2023-02-28T17:00:26;6.60;80.80
26081;DHT22;13991;51.174;4.438;2023-02-28T17:02:53;6.50;81.60
26081;DHT22;13991;51.174;4.438;2023-02-28T17:05:19;6.60;81.80
26081;DHT22;13991;51.174;4.438;2023-02-28T17:07:45;6.60;81.60
26081;DHT22;13991;51.174;4.438;2023-02-28T17:10:23;6.50;82.80
26081;DHT22;13991;51.174;4.438;2023-02-28T17:12:49;6.60;82.40
26081;DHT22;13991;51.174;4.438;2023-02-28T17:15:18;6.50;82.60
26081;DHT22;13991;51.174;4.438;2023-02-28T17:17:45;6.50;82.30
26081;DHT22;13991;51.174;4.438;2023-02-28T17:20:17;6.60;82.50
26081;DHT22;13991;51.174;4.438;2023-02-28T17:22:43;6.50;83.20
26081;DHT22;13991;51.174;4.438;2023-02-28T17:25:10;6.50;83.30
26081;DHT22;13991;51.174;4.438;2023-02-28T17:27:36;6.50;83.10
26081;DHT22;13991;51.174;4.438;2023-02-28T17:30:11;6.40;86.60
26081;DHT22;13991;51.174;4.438;2023-02-28T17:32:38;6.40;85.60
26081;DHT22;13991;51.174;4.438;2023-02-28T17:35:04;6.40;84.50
26081;DHT22;13991;51.174;4.438;2023-02-28T17:37:30;6.40;84.70
26081;DHT22;13991;51.174;4.438;2023-02-28T17:39:56;6.40;84.50
26081;DHT22;13991;51.174;4.438;2023-02-28T17:42:21;6.40;84.30
26081;DHT22;13991;51.174;4.438;2023-02-28T17:44:47;6.30;84.90
26081;DHT22;13991;51.174;4.438;2023-02-28T17:47:13;6.30;85.30
26081;DHT22;13991;51.174;4.438;2023-02-28T17:49:38;6.30;85.60
26081;DHT22;13991;51.174;4.438;2023-02-28T17:52:04;6.40;85.60
26081;DHT22;13991;51.174;4.438;2023-02-28T17:54:30;6.30;85.60
26081;DHT22;13991;51.174;4.438;2023-02-28T17:56:55;6.30;85.80
26081;DHT22;13991;51.174;4.438;2023-02-28T17:59:21;6.30;85.90
26081;DHT22;13991;51.174;4.438;2023-02-28T18:01:47;6.20;86.30
26081;DHT22;13991;51.174;4.438;2023-02-28T18:04:12;6.20;86.40
26081;DHT22;13991;51.174;4.438;2023-02-28T18:06:43;6.20;86.70
26081;DHT22;13991;51.174;4.438;2023-02-28T18:09:20;6.10;87.00
26081;DHT22;13991;51.174;4.438;2023-02-28T18:11:50;6.10;86.60
26081;DHT22;13991;51.174;4.438;2023-02-28T18:14:18;6.10;86.90
26081;DHT22;13991;51.174;4.438;2023-02-28T18:16:45;6.10;86.70
26081;DHT22;13991;51.174;4.438;2023-02-28T18:19:12;6.10;86.70
26081;DHT22;13991;51.174;4.438;2023-02-28T18:21:43;6.10;86.30
26081;DHT22;13991;51.174;4.438;2023-02-28T18:24:09;6.00;86.40
26081;DHT22;13991;51.174;4.438;2023-02-28T18:26:36;6.00;86.80
26081;DHT22;13991;51.174;4.438;2023-02-28T18:29:02;5.90;87.70
26081;DHT22;13991;51.174;4.438;2023-02-28T18:31:28;5.90;88.20
26081;DHT22;13991;51.174;4.438;2023-02-28T18:33:53;5.90;88.50
26081;DHT22;13991;51.174;4.438;2023-02-28T18:36:20;5.90;87.80
26081;DHT22;13991;51.174;4.438;2023-02-28T18:38:47;5.80;87.90
26081;DHT22;13991;51.174;4.438;2023-02-28T18:41:13;5.80;88.20
26081;DHT22;13991;51.174;4.438;2023-02-28T18:43:38;5.90;88.20
26081;DHT22;13991;51.174;4.438;2023-02-28T18:46:06;5.90;88.10
26081;DHT22;13991;51.174;4.438;2023-02-28T18:48:32;5.90;88.40
26081;DHT22;13991;51.174;4.438;2023-02-28T18:50:58;5.80;88.70
26081;DHT22;13991;51.174;4.438;2023-02-28T18:53:29;5.80;89.00
26081;DHT22;13991;51.174;4.438;2023-02-28T18:55:59;5.70;89.70
26081;DHT22;13991;51.174;4.438;2023-02-28T18:58:25;5.80;89.40
26081;DHT22;13991;51.174;4.438;2023-02-28T19:00:52;5.80;89.70
26081;DHT22;13991;51.174;4.438;2023-02-28T19:03:18;5.80;89.50
26081;DHT22;13991;51.174;4.438;2023-02-28T19:05:44;5.60;89.70
26081;DHT22;13991;51.174;4.438;2023-02-28T19:08:11;5.70;90.10
26081;DHT22;13991;51.174;4.438;2023-02-28T19:10:40;5.60;90.20
26081;DHT22;13991;51.174;4.438;2023-02-28T19:13:06;5.60;90.50